sensor_id;sensor_type;location;lat;lon;timestamp;P1;durP1;ratioP1;P2;durP2;ratioP2
78205;SDS011;67480;48.920;12.880;2024-01-15T00:01:41;41.80;;;21.38;;
78205;SDS011;67480;48.920;12.880;2024-01-15T00:04:09;47.97;;;23.35;;
78205;SDS011;67480;48.920;12.880;2024-01-15T00:06:35;39.83;;;21.92;;
78205;SDS011;67480;48.920;12.880;2024-01-15T00:09:00;36.15;;;20.65;;
78205;SDS011;67480;48.920;12.880;2024-01-15T00:11:25;40.90;;;21.35;;
78205;SDS011;67480;48.920;12.880;2024-01-15T00:13:51;40.05;;;21.20;;
78205;SDS011;67480;48.920;12.880;2024-01-15T00:16:16;41.20;;;21.70;;
78205;SDS011;67480;48.920;12.880;2024-01-15T00:18:42;44.70;;;22.95;;
78205;SDS011;67480;48.920;12.880;2024-01-15T00:21:07;38.78;;;21.15;;
78205;SDS011;67480;48.920;12.880;2024-01-15T00:23:32;43.25;;;22.02;;
78205;SDS011;67480;48.920;12.880;2024-01-15T00:25:58;38.75;;;21.45;;
78205;SDS011;67480;48.920;12.880;2024-01-15T00:28:23;44.67;;;22.83;;
78205;SDS011;67480;48.920;12.880;2024-01-15T00:30:48;43.08;;;23.20;;
78205;SDS011;67480;48.920;12.880;2024-01-15T00:33:14;37.38;;;21.45;;
78205;SDS011;67480;48.920;12.880;2024-01-15T00:35:39;41.13;;;22.17;;
78205;SDS011;67480;48.920;12.880;2024-01-15T00:38:05;43.95;;;22.85;;
78205;SDS011;67480;48.920;12.880;2024-01-15T00:40:30;41.22;;;21.67;;
78205;SDS011;67480;48.920;12.880;2024-01-15T00:42:55;42.33;;;22.63;;
78205;SDS011;67480;48.920;12.880;2024-01-15T00:45:21;44.40;;;22.27;;
78205;SDS011;67480;48.920;12.880;2024-01-15T00:47:46;38.50;;;20.52;;
78205;SDS011;67480;48.920;12.880;2024-01-15T00:50:12;48.70;;;26.20;;
78205;SDS011;67480;48.920;12.880;2024-01-15T00:52:37;43.40;;;23.20;;
78205;SDS011;67480;48.920;12.880;2024-01-15T00:55:02;42.35;;;23.30;;
78205;SDS011;67480;48.920;12.880;2024-01-15T00:57:28;42.80;;;23.65;;
78205;SDS011;67480;48.920;12.880;2024-01-15T00:59:53;39.90;;;21.75;;
78205;SDS011;67480;48.920;12.880;2024-01-15T01:02:19;42.38;;;23.50;;
78205;SDS011;67480;48.920;12.880;2024-01-15T01:04:44;40.65;;;22.27;;
78205;SDS011;67480;48.920;12.880;2024-01-15T01:07:09;43.22;;;23.27;;
78205;SDS011;67480;48.920;12.880;2024-01-15T01:09:35;45.33;;;23.83;;
78205;SDS011;67480;48.920;12.880;2024-01-15T01:12:00;42.97;;;21.98;;
78205;SDS011;67480;48.920;12.880;2024-01-15T01:14:25;44.28;;;23.98;;
78205;SDS011;67480;48.920;12.880;2024-01-15T01:16:51;43.00;;;22.77;;
78205;SDS011;67480;48.920;12.880;2024-01-15T01:19:16;43.63;;;22.48;;
78205;SDS011;67480;48.920;12.880;2024-01-15T01:21:41;45.65;;;23.92;;
78205;SDS011;67480;48.920;12.880;2024-01-15T01:24:07;44.17;;;24.27;;
78205;SDS011;67480;48.920;12.880;2024-01-15T01:26:32;43.47;;;23.25;;
78205;SDS011;67480;48.920;12.880;2024-01-15T01:28:57;42.25;;;23.85;;
78205;SDS011;67480;48.920;12.880;2024-01-15T01:31:23;44.30;;;24.00;;
78205;SDS011;67480;48.920;12.880;2024-01-15T01:33:49;44.22;;;23.23;;
78205;SDS011;67480;48.920;12.880;2024-01-15T01:36:14;44.00;;;23.77;;
78205;SDS011;67480;48.920;12.880;2024-01-15T01:38:40;43.45;;;24.63;;
78205;SDS011;67480;48.920;12.880;2024-01-15T01:41:06;45.50;;;23.40;;
78205;SDS011;67480;48.920;12.880;2024-01-15T01:43:31;46.10;;;23.63;;
78205;SDS011;67480;48.920;12.880;2024-01-15T01:45:57;47.17;;;24.52;;
78205;SDS011;67480;48.920;12.880;2024-01-15T01:48:25;41.00;;;22.85;;
78205;SDS011;67480;48.920;12.880;2024-01-15T01:50:52;47.60;;;25.05;;
78205;SDS011;67480;48.920;12.880;2024-01-15T01:53:20;43.35;;;23.70;;
78205;SDS011;67480;48.920;12.880;2024-01-15T01:55:46;43.20;;;23.52;;
78205;SDS011;67480;48.920;12.880;2024-01-15T01:58:13;39.78;;;22.55;;
78205;SDS011;67480;48.920;12.880;2024-01-15T02:00:38;39.25;;;21.80;;
78205;SDS011;67480;48.920;12.880;2024-01-15T02:03:04;39.92;;;22.02;;
78205;SDS011;67480;48.920;12.880;2024-01-15T02:05:30;39.75;;;20.95;;
78205;SDS011;67480;48.920;12.880;2024-01-15T02:07:56;37.40;;;20.20;;
78205;SDS011;67480;48.920;12.880;2024-01-15T02:10:21;39.00;;;21.25;;
78205;SDS011;67480;48.920;12.880;2024-01-15T02:12:46;40.65;;;22.52;;
78205;SDS011;67480;48.920;12.880;2024-01-15T02:15:13;39.28;;;20.48;;
78205;SDS011;67480;48.920;12.880;2024-01-15T02:20:36;35.53;;;19.90;;
78205;SDS011;67480;48.920;12.880;2024-01-15T02:23:07;35.50;;;19.50;;
78205;SDS011;67480;48.920;12.880;2024-01-15T02:25:35;34.17;;;19.30;;
78205;SDS011;67480;48.920;12.880;2024-01-15T02:28:02;34.10;;;18.92;;
78205;SDS011;67480;48.920;12.880;2024-01-15T02:30:29;38.35;;;18.80;;
78205;SDS011;67480;48.920;12.880;2024-01-15T02:32:55;36.75;;;19.05;;
78205;SDS011;67480;48.920;12.880;2024-01-15T02:35:20;36.97;;;19.17;;
78205;SDS011;67480;48.920;12.880;2024-01-15T02:37:46;39.20;;;19.55;;
78205;SDS011;67480;48.920;12.880;2024-01-15T02:40:11;38.10;;;20.25;;
78205;SDS011;67480;48.920;12.880;2024-01-15T02:42:36;35.83;;;19.10;;
78205;SDS011;67480;48.920;12.880;2024-01-15T02:45:02;38.83;;;20.48;;
78205;SDS011;67480;48.920;12.880;2024-01-15T02:47:28;38.40;;;20.23;;
78205;SDS011;67480;48.920;12.880;2024-01-15T02:49:53;36.00;;;19.90;;
78205;SDS011;67480;48.920;12.880;2024-01-15T02:52:18;37.45;;;18.35;;
78205;SDS011;67480;48.920;12.880;2024-01-15T02:54:44;37.97;;;19.67;;
78205;SDS011;67480;48.920;12.880;2024-01-15T02:57:09;35.60;;;18.52;;
78205;SDS011;67480;48.920;12.880;2024-01-15T02:59:34;36.65;;;20.20;;
78205;SDS011;67480;48.920;12.880;2024-01-15T03:02:00;33.22;;;18.45;;
78205;SDS011;67480;48.920;12.880;2024-01-15T03:04:25;33.80;;;19.77;;
78205;SDS011;67480;48.920;12.880;2024-01-15T03:06:50;37.85;;;19.63;;
78205;SDS011;67480;48.920;12.880;2024-01-15T03:09:16;37.92;;;19.80;;
78205;SDS011;67480;48.920;12.880;2024-01-15T03:11:41;36.20;;;19.63;;
78205;SDS011;67480;48.920;12.880;2024-01-15T03:14:06;42.15;;;21.25;;
78205;SDS011;67480;48.920;12.880;2024-01-15T03:16:32;39.35;;;19.58;;
78205;SDS011;67480;48.920;12.880;2024-01-15T03:18:57;36.97;;;18.65;;
78205;SDS011;67480;48.920;12.880;2024-01-15T03:21:22;39.35;;;20.33;;
78205;SDS011;67480;48.920;12.880;2024-01-15T03:23:48;40.92;;;19.95;;
78205;SDS011;67480;48.920;12.880;2024-01-15T03:26:13;40.58;;;20.38;;
78205;SDS011;67480;48.920;12.880;2024-01-15T03:28:38;35.58;;;19.85;;
78205;SDS011;67480;48.920;12.880;2024-01-15T03:31:03;35.25;;;19.48;;
78205;SDS011;67480;48.920;12.880;2024-01-15T03:33:29;39.13;;;19.15;;
78205;SDS011;67480;48.920;12.880;2024-01-15T03:35:54;39.45;;;21.40;;
78205;SDS011;67480;48.920;12.880;2024-01-15T03:38:19;40.15;;;19.20;;
78205;SDS011;67480;48.920;12.880;2024-01-15T03:40:45;40.22;;;20.48;;
78205;SDS011;67480;48.920;12.880;2024-01-15T03:43:10;35.75;;;19.92;;
78205;SDS011;67480;48.920;12.880;2024-01-15T03:45:35;37.55;;;19.30;;
78205;SDS011;67480;48.920;12.880;2024-01-15T03:48:01;39.25;;;20.10;;
78205;SDS011;67480;48.920;12.880;2024-01-15T03:50:26;37.75;;;18.95;;
78205;SDS011;67480;48.920;12.880;2024-01-15T03:52:51;41.30;;;20.20;;
78205;SDS011;67480;48.920;12.880;2024-01-15T03:55:16;35.78;;;20.40;;
78205;SDS011;67480;48.920;12.880;2024-01-15T03:57:42;38.72;;;20.45;;
78205;SDS011;67480;48.920;12.880;2024-01-15T04:00:07;38.80;;;19.55;;
78205;SDS011;67480;48.920;12.880;2024-01-15T04:02:33;36.47;;;19.67;;
78205;SDS011;67480;48.920;12.880;2024-01-15T04:04:58;40.63;;;19.85;;
78205;SDS011;67480;48.920;12.880;2024-01-15T04:07:23;37.35;;;19.85;;
78205;SDS011;67480;48.920;12.880;2024-01-15T04:09:49;39.15;;;19.77;;
78205;SDS011;67480;48.920;12.880;2024-01-15T04:12:14;36.58;;;19.73;;
78205;SDS011;67480;48.920;12.880;2024-01-15T04:14:39;35.65;;;18.80;;
78205;SDS011;67480;48.920;12.880;2024-01-15T04:17:05;41.63;;;20.38;;
78205;SDS011;67480;48.920;12.880;2024-01-15T04:19:30;44.90;;;21.08;;
78205;SDS011;67480;48.920;12.880;2024-01-15T04:21:55;37.50;;;19.95;;
78205;SDS011;67480;48.920;12.880;2024-01-15T04:24:21;40.65;;;19.65;;
78205;SDS011;67480;48.920;12.880;2024-01-15T04:26:46;36.65;;;18.90;;
78205;SDS011;67480;48.920;12.880;2024-01-15T04:29:12;37.72;;;21.05;;
78205;SDS011;67480;48.920;12.880;2024-01-15T04:31:37;40.58;;;19.83;;
78205;SDS011;67480;48.920;12.880;2024-01-15T04:34:03;43.22;;;20.33;;
78205;SDS011;67480;48.920;12.880;2024-01-15T04:36:28;38.45;;;20.83;;
78205;SDS011;67480;48.920;12.880;2024-01-15T04:38:53;41.72;;;21.75;;
78205;SDS011;67480;48.920;12.880;2024-01-15T04:41:19;35.72;;;19.42;;
78205;SDS011;67480;48.920;12.880;2024-01-15T04:43:44;38.88;;;20.50;;
78205;SDS011;67480;48.920;12.880;2024-01-15T04:46:09;39.67;;;19.35;;
78205;SDS011;67480;48.920;12.880;2024-01-15T04:48:35;36.85;;;20.45;;
78205;SDS011;67480;48.920;12.880;2024-01-15T04:51:00;42.22;;;20.65;;
78205;SDS011;67480;48.920;12.880;2024-01-15T04:53:26;40.83;;;21.85;;
78205;SDS011;67480;48.920;12.880;2024-01-15T04:55:51;40.58;;;20.23;;
78205;SDS011;67480;48.920;12.880;2024-01-15T04:58:16;41.92;;;21.50;;
78205;SDS011;67480;48.920;12.880;2024-01-15T05:00:42;39.00;;;20.05;;
78205;SDS011;67480;48.920;12.880;2024-01-15T05:03:07;40.45;;;20.20;;
78205;SDS011;67480;48.920;12.880;2024-01-15T05:05:33;39.95;;;20.58;;
78205;SDS011;67480;48.920;12.880;2024-01-15T05:07:58;36.72;;;19.05;;
78205;SDS011;67480;48.920;12.880;2024-01-15T05:10:23;39.92;;;18.58;;
78205;SDS011;67480;48.920;12.880;2024-01-15T05:12:49;35.88;;;18.60;;
78205;SDS011;67480;48.920;12.880;2024-01-15T05:15:14;38.78;;;19.40;;
78205;SDS011;67480;48.920;12.880;2024-01-15T05:17:39;40.42;;;20.20;;
78205;SDS011;67480;48.920;12.880;2024-01-15T05:20:05;39.28;;;18.60;;
78205;SDS011;67480;48.920;12.880;2024-01-15T05:22:30;34.85;;;18.50;;
78205;SDS011;67480;48.920;12.880;2024-01-15T05:24:56;38.90;;;19.70;;
78205;SDS011;67480;48.920;12.880;2024-01-15T05:27:21;42.13;;;20.85;;
78205;SDS011;67480;48.920;12.880;2024-01-15T05:29:46;37.35;;;19.55;;
78205;SDS011;67480;48.920;12.880;2024-01-15T05:32:12;32.83;;;18.38;;
78205;SDS011;67480;48.920;12.880;2024-01-15T05:34:37;39.85;;;18.75;;
78205;SDS011;67480;48.920;12.880;2024-01-15T05:37:02;31.67;;;16.77;;
78205;SDS011;67480;48.920;12.880;2024-01-15T05:39:28;38.03;;;18.65;;
78205;SDS011;67480;48.920;12.880;2024-01-15T05:41:53;35.53;;;17.20;;
78205;SDS011;67480;48.920;12.880;2024-01-15T05:44:19;37.60;;;18.40;;
78205;SDS011;67480;48.920;12.880;2024-01-15T05:46:48;32.75;;;16.98;;
78205;SDS011;67480;48.920;12.880;2024-01-15T05:49:13;35.15;;;16.98;;
78205;SDS011;67480;48.920;12.880;2024-01-15T05:51:39;34.08;;;18.45;;
78205;SDS011;67480;48.920;12.880;2024-01-15T05:54:04;34.88;;;18.00;;
78205;SDS011;67480;48.920;12.880;2024-01-15T05:56:31;35.55;;;18.05;;
78205;SDS011;67480;48.920;12.880;2024-01-15T05:58:56;32.08;;;17.27;;
78205;SDS011;67480;48.920;12.880;2024-01-15T06:01:21;35.13;;;17.63;;
78205;SDS011;67480;48.920;12.880;2024-01-15T06:03:46;30.45;;;17.27;;
78205;SDS011;67480;48.920;12.880;2024-01-15T06:06:12;37.22;;;18.65;;
78205;SDS011;67480;48.920;12.880;2024-01-15T06:08:37;38.45;;;18.65;;
78205;SDS011;67480;48.920;12.880;2024-01-15T06:11:03;32.10;;;18.13;;
78205;SDS011;67480;48.920;12.880;2024-01-15T06:13:28;33.50;;;18.55;;
78205;SDS011;67480;48.920;12.880;2024-01-15T06:15:54;38.20;;;19.40;;
78205;SDS011;67480;48.920;12.880;2024-01-15T06:18:19;33.80;;;17.65;;
78205;SDS011;67480;48.920;12.880;2024-01-15T06:20:44;37.85;;;19.25;;
78205;SDS011;67480;48.920;12.880;2024-01-15T06:23:10;33.40;;;17.30;;
78205;SDS011;67480;48.920;12.880;2024-01-15T06:25:35;33.38;;;17.20;;
78205;SDS011;67480;48.920;12.880;2024-01-15T06:28:00;35.00;;;17.42;;
78205;SDS011;67480;48.920;12.880;2024-01-15T06:30:25;30.25;;;16.83;;
78205;SDS011;67480;48.920;12.880;2024-01-15T06:32:51;27.80;;;16.00;;
78205;SDS011;67480;48.920;12.880;2024-01-15T06:35:16;32.95;;;16.77;;
78205;SDS011;67480;48.920;12.880;2024-01-15T06:37:41;31.48;;;17.27;;
78205;SDS011;67480;48.920;12.880;2024-01-15T06:40:07;32.40;;;17.58;;
78205;SDS011;67480;48.920;12.880;2024-01-15T06:42:33;31.60;;;17.27;;
78205;SDS011;67480;48.920;12.880;2024-01-15T06:44:58;31.88;;;15.98;;
78205;SDS011;67480;48.920;12.880;2024-01-15T06:47:23;35.72;;;17.63;;
78205;SDS011;67480;48.920;12.880;2024-01-15T06:49:49;31.88;;;17.73;;
78205;SDS011;67480;48.920;12.880;2024-01-15T06:52:15;34.22;;;17.33;;
78205;SDS011;67480;48.920;12.880;2024-01-15T06:54:40;35.25;;;18.02;;
78205;SDS011;67480;48.920;12.880;2024-01-15T06:57:06;41.05;;;21.08;;
78205;SDS011;67480;48.920;12.880;2024-01-15T06:59:31;30.23;;;16.85;;
78205;SDS011;67480;48.920;12.880;2024-01-15T07:01:57;31.17;;;16.17;;
78205;SDS011;67480;48.920;12.880;2024-01-15T07:04:22;32.95;;;16.70;;
78205;SDS011;67480;48.920;12.880;2024-01-15T07:06:47;28.52;;;17.25;;
78205;SDS011;67480;48.920;12.880;2024-01-15T07:09:13;31.00;;;15.30;;
78205;SDS011;67480;48.920;12.880;2024-01-15T07:11:38;30.20;;;16.23;;
78205;SDS011;67480;48.920;12.880;2024-01-15T07:14:08;29.67;;;15.45;;
78205;SDS011;67480;48.920;12.880;2024-01-15T07:16:34;30.67;;;16.83;;
78205;SDS011;67480;48.920;12.880;2024-01-15T07:18:59;34.03;;;17.67;;
78205;SDS011;67480;48.920;12.880;2024-01-15T07:21:24;35.30;;;18.80;;
78205;SDS011;67480;48.920;12.880;2024-01-15T07:23:49;35.50;;;17.17;;
78205;SDS011;67480;48.920;12.880;2024-01-15T07:26:15;31.85;;;16.90;;
78205;SDS011;67480;48.920;12.880;2024-01-15T07:28:40;35.53;;;17.95;;
78205;SDS011;67480;48.920;12.880;2024-01-15T07:31:05;34.45;;;18.17;;
78205;SDS011;67480;48.920;12.880;2024-01-15T07:33:31;33.25;;;18.05;;
78205;SDS011;67480;48.920;12.880;2024-01-15T07:35:56;34.28;;;17.58;;
78205;SDS011;67480;48.920;12.880;2024-01-15T07:38:22;34.97;;;17.27;;
78205;SDS011;67480;48.920;12.880;2024-01-15T07:40:47;29.38;;;15.15;;
78205;SDS011;67480;48.920;12.880;2024-01-15T07:43:14;35.00;;;17.50;;
78205;SDS011;67480;48.920;12.880;2024-01-15T07:45:39;38.13;;;17.58;;
78205;SDS011;67480;48.920;12.880;2024-01-15T07:48:05;29.88;;;15.75;;
78205;SDS011;67480;48.920;12.880;2024-01-15T07:50:30;31.08;;;16.55;;
78205;SDS011;67480;48.920;12.880;2024-01-15T07:52:56;31.17;;;15.85;;
78205;SDS011;67480;48.920;12.880;2024-01-15T07:55:21;26.15;;;15.57;;
78205;SDS011;67480;48.920;12.880;2024-01-15T07:57:46;31.25;;;17.30;;
78205;SDS011;67480;48.920;12.880;2024-01-15T08:00:12;27.92;;;15.43;;
78205;SDS011;67480;48.920;12.880;2024-01-15T08:02:37;30.27;;;16.02;;
78205;SDS011;67480;48.920;12.880;2024-01-15T08:05:03;33.22;;;17.65;;
78205;SDS011;67480;48.920;12.880;2024-01-15T08:07:29;31.80;;;16.90;;
78205;SDS011;67480;48.920;12.880;2024-01-15T08:09:54;29.38;;;16.25;;
78205;SDS011;67480;48.920;12.880;2024-01-15T08:12:19;23.73;;;14.52;;
78205;SDS011;67480;48.920;12.880;2024-01-15T08:14:45;25.50;;;14.23;;
78205;SDS011;67480;48.920;12.880;2024-01-15T08:17:10;26.33;;;14.20;;
78205;SDS011;67480;48.920;12.880;2024-01-15T08:19:36;29.00;;;14.85;;
78205;SDS011;67480;48.920;12.880;2024-01-15T08:22:01;26.50;;;14.73;;
78205;SDS011;67480;48.920;12.880;2024-01-15T08:24:27;24.23;;;14.02;;
78205;SDS011;67480;48.920;12.880;2024-01-15T08:26:53;26.50;;;14.60;;
78205;SDS011;67480;48.920;12.880;2024-01-15T08:29:18;34.15;;;18.33;;
78205;SDS011;67480;48.920;12.880;2024-01-15T08:31:46;27.67;;;15.82;;
78205;SDS011;67480;48.920;12.880;2024-01-15T08:34:11;28.42;;;16.45;;
78205;SDS011;67480;48.920;12.880;2024-01-15T08:36:36;29.63;;;15.45;;
78205;SDS011;67480;48.920;12.880;2024-01-15T08:39:02;29.25;;;15.27;;
78205;SDS011;67480;48.920;12.880;2024-01-15T08:41:29;25.90;;;14.88;;
78205;SDS011;67480;48.920;12.880;2024-01-15T08:43:55;27.30;;;15.45;;
78205;SDS011;67480;48.920;12.880;2024-01-15T08:46:20;28.90;;;15.45;;
78205;SDS011;67480;48.920;12.880;2024-01-15T08:48:45;27.00;;;15.38;;
78205;SDS011;67480;48.920;12.880;2024-01-15T08:51:11;28.63;;;16.13;;
78205;SDS011;67480;48.920;12.880;2024-01-15T08:53:36;25.83;;;15.50;;
78205;SDS011;67480;48.920;12.880;2024-01-15T08:56:01;29.33;;;16.70;;
78205;SDS011;67480;48.920;12.880;2024-01-15T08:58:27;27.15;;;15.55;;
78205;SDS011;67480;48.920;12.880;2024-01-15T09:00:52;28.83;;;15.57;;
78205;SDS011;67480;48.920;12.880;2024-01-15T09:03:17;25.80;;;16.15;;
78205;SDS011;67480;48.920;12.880;2024-01-15T09:05:43;28.00;;;15.90;;
78205;SDS011;67480;48.920;12.880;2024-01-15T09:08:08;27.00;;;14.57;;
78205;SDS011;67480;48.920;12.880;2024-01-15T09:10:34;26.98;;;13.60;;
78205;SDS011;67480;48.920;12.880;2024-01-15T09:12:59;24.40;;;14.75;;
78205;SDS011;67480;48.920;12.880;2024-01-15T09:15:25;26.23;;;15.50;;
78205;SDS011;67480;48.920;12.880;2024-01-15T09:17:50;26.75;;;16.60;;
78205;SDS011;67480;48.920;12.880;2024-01-15T09:20:16;27.27;;;15.73;;
78205;SDS011;67480;48.920;12.880;2024-01-15T09:22:41;27.65;;;15.88;;
78205;SDS011;67480;48.920;12.880;2024-01-15T09:25:07;28.52;;;15.80;;
78205;SDS011;67480;48.920;12.880;2024-01-15T09:27:34;23.42;;;13.70;;
78205;SDS011;67480;48.920;12.880;2024-01-15T09:30:00;26.80;;;14.50;;
78205;SDS011;67480;48.920;12.880;2024-01-15T09:32:25;27.92;;;14.90;;
78205;SDS011;67480;48.920;12.880;2024-01-15T09:34:51;25.20;;;14.25;;
78205;SDS011;67480;48.920;12.880;2024-01-15T09:37:16;25.00;;;13.50;;
78205;SDS011;67480;48.920;12.880;2024-01-15T09:39:41;25.55;;;14.30;;
78205;SDS011;67480;48.920;12.880;2024-01-15T09:42:07;25.95;;;13.65;;
78205;SDS011;67480;48.920;12.880;2024-01-15T09:44:33;27.38;;;13.70;;
78205;SDS011;67480;48.920;12.880;2024-01-15T09:46:59;19.80;;;12.02;;
78205;SDS011;67480;48.920;12.880;2024-01-15T09:49:24;24.35;;;12.85;;
78205;SDS011;67480;48.920;12.880;2024-01-15T09:51:50;21.02;;;12.55;;
78205;SDS011;67480;48.920;12.880;2024-01-15T09:54:16;20.77;;;12.80;;
78205;SDS011;67480;48.920;12.880;2024-01-15T09:56:42;23.48;;;12.90;;
78205;SDS011;67480;48.920;12.880;2024-01-15T09:59:11;24.02;;;13.13;;
78205;SDS011;67480;48.920;12.880;2024-01-15T10:01:41;20.10;;;12.95;;
78205;SDS011;67480;48.920;12.880;2024-01-15T10:04:08;24.23;;;13.85;;
78205;SDS011;67480;48.920;12.880;2024-01-15T10:06:33;22.75;;;14.30;;
78205;SDS011;67480;48.920;12.880;2024-01-15T10:08:59;23.80;;;15.57;;
78205;SDS011;67480;48.920;12.880;2024-01-15T10:11:25;23.25;;;13.73;;
78205;SDS011;67480;48.920;12.880;2024-01-15T10:13:50;21.10;;;12.48;;
78205;SDS011;67480;48.920;12.880;2024-01-15T10:16:18;21.05;;;11.80;;
78205;SDS011;67480;48.920;12.880;2024-01-15T10:18:47;21.55;;;11.40;;
78205;SDS011;67480;48.920;12.880;2024-01-15T10:21:12;18.52;;;10.05;;
78205;SDS011;67480;48.920;12.880;2024-01-15T10:23:39;19.23;;;10.00;;
78205;SDS011;67480;48.920;12.880;2024-01-15T10:26:04;14.35;;;9.70;;
78205;SDS011;67480;48.920;12.880;2024-01-15T10:28:30;19.20;;;9.70;;
78205;SDS011;67480;48.920;12.880;2024-01-15T10:30:57;15.05;;;8.80;;
78205;SDS011;67480;48.920;12.880;2024-01-15T10:33:24;17.08;;;9.52;;
78205;SDS011;67480;48.920;12.880;2024-01-15T10:35:58;15.18;;;8.77;;
78205;SDS011;67480;48.920;12.880;2024-01-15T10:38:25;13.07;;;8.90;;
78205;SDS011;67480;48.920;12.880;2024-01-15T10:40:51;14.80;;;9.15;;
78205;SDS011;67480;48.920;12.880;2024-01-15T10:43:17;16.40;;;9.23;;
78205;SDS011;67480;48.920;12.880;2024-01-15T10:45:44;12.82;;;8.32;;
78205;SDS011;67480;48.920;12.880;2024-01-15T10:48:10;14.25;;;8.35;;
78205;SDS011;67480;48.920;12.880;2024-01-15T10:50:35;13.43;;;8.20;;
78205;SDS011;67480;48.920;12.880;2024-01-15T10:53:01;13.00;;;8.18;;
78205;SDS011;67480;48.920;12.880;2024-01-15T10:55:27;11.35;;;8.07;;
78205;SDS011;67480;48.920;12.880;2024-01-15T10:57:54;13.43;;;8.07;;
78205;SDS011;67480;48.920;12.880;2024-01-15T11:00:21;13.73;;;8.38;;
78205;SDS011;67480;48.920;12.880;2024-01-15T11:02:46;15.60;;;8.80;;
78205;SDS011;67480;48.920;12.880;2024-01-15T11:05:12;12.80;;;7.93;;
78205;SDS011;67480;48.920;12.880;2024-01-15T11:07:39;12.07;;;7.78;;
78205;SDS011;67480;48.920;12.880;2024-01-15T11:10:06;12.55;;;7.78;;
78205;SDS011;67480;48.920;12.880;2024-01-15T11:12:35;11.50;;;7.78;;
78205;SDS011;67480;48.920;12.880;2024-01-15T11:15:03;10.85;;;6.90;;
78205;SDS011;67480;48.920;12.880;2024-01-15T11:18:17;13.05;;;8.00;;
78205;SDS011;67480;48.920;12.880;2024-01-15T11:20:28;11.00;;;7.00;;
78205;SDS011;67480;48.920;12.880;2024-01-15T11:22:53;15.98;;;7.60;;
78205;SDS011;67480;48.920;12.880;2024-01-15T11:25:21;11.77;;;6.85;;
78205;SDS011;67480;48.920;12.880;2024-01-15T11:27:47;11.73;;;7.30;;
78205;SDS011;67480;48.920;12.880;2024-01-15T11:30:16;12.52;;;7.47;;
78205;SDS011;67480;48.920;12.880;2024-01-15T11:32:44;14.32;;;6.88;;
78205;SDS011;67480;48.920;12.880;2024-01-15T11:35:11;12.88;;;7.07;;
78205;SDS011;67480;48.920;12.880;2024-01-15T11:40:19;12.18;;;7.68;;
78205;SDS011;67480;48.920;12.880;2024-01-15T11:43:02;11.25;;;7.35;;
78205;SDS011;67480;48.920;12.880;2024-01-15T11:45:29;10.43;;;6.78;;
78205;SDS011;67480;48.920;12.880;2024-01-15T11:50:40;12.07;;;6.82;;
78205;SDS011;67480;48.920;12.880;2024-01-15T11:53:13;10.18;;;6.55;;
78205;SDS011;67480;48.920;12.880;2024-01-15T11:55:39;11.05;;;6.35;;
78205;SDS011;67480;48.920;12.880;2024-01-15T11:58:10;10.63;;;6.70;;
78205;SDS011;67480;48.920;12.880;2024-01-15T12:00:39;10.98;;;6.70;;
78205;SDS011;67480;48.920;12.880;2024-01-15T12:03:12;9.60;;;6.40;;
78205;SDS011;67480;48.920;12.880;2024-01-15T12:05:38;10.82;;;6.38;;
78205;SDS011;67480;48.920;12.880;2024-01-15T12:08:04;10.32;;;6.32;;
78205;SDS011;67480;48.920;12.880;2024-01-15T12:10:35;10.85;;;6.60;;
78205;SDS011;67480;48.920;12.880;2024-01-15T12:13:09;8.98;;;5.68;;
78205;SDS011;67480;48.920;12.880;2024-01-15T12:15:35;9.60;;;6.53;;
78205;SDS011;67480;48.920;12.880;2024-01-15T12:18:01;9.20;;;6.07;;
78205;SDS011;67480;48.920;12.880;2024-01-15T12:20:28;10.32;;;6.40;;
78205;SDS011;67480;48.920;12.880;2024-01-15T12:22:57;10.95;;;6.10;;
78205;SDS011;67480;48.920;12.880;2024-01-15T12:25:23;10.60;;;6.07;;
78205;SDS011;67480;48.920;12.880;2024-01-15T12:27:49;13.57;;;6.97;;
78205;SDS011;67480;48.920;12.880;2024-01-15T12:30:16;10.32;;;6.20;;
78205;SDS011;67480;48.920;12.880;2024-01-15T12:32:41;11.00;;;6.97;;
78205;SDS011;67480;48.920;12.880;2024-01-15T12:35:07;11.77;;;7.28;;
78205;SDS011;67480;48.920;12.880;2024-01-15T12:37:37;16.70;;;10.23;;
78205;SDS011;67480;48.920;12.880;2024-01-15T12:40:04;21.73;;;12.18;;
78205;SDS011;67480;48.920;12.880;2024-01-15T12:42:32;18.63;;;9.80;;
78205;SDS011;67480;48.920;12.880;2024-01-15T12:45:07;12.05;;;7.90;;
78205;SDS011;67480;48.920;12.880;2024-01-15T12:47:34;13.10;;;7.10;;
78205;SDS011;67480;48.920;12.880;2024-01-15T12:50:01;13.43;;;7.65;;
78205;SDS011;67480;48.920;12.880;2024-01-15T12:52:28;12.35;;;6.88;;
78205;SDS011;67480;48.920;12.880;2024-01-15T12:54:54;12.23;;;7.05;;
78205;SDS011;67480;48.920;12.880;2024-01-15T12:57:20;12.77;;;7.45;;
78205;SDS011;67480;48.920;12.880;2024-01-15T12:59:45;11.07;;;6.38;;
78205;SDS011;67480;48.920;12.880;2024-01-15T13:02:12;11.82;;;6.70;;
78205;SDS011;67480;48.920;12.880;2024-01-15T13:04:38;10.30;;;6.70;;
78205;SDS011;67480;48.920;12.880;2024-01-15T13:07:05;9.98;;;6.53;;
78205;SDS011;67480;48.920;12.880;2024-01-15T13:09:31;10.52;;;6.53;;
78205;SDS011;67480;48.920;12.880;2024-01-15T13:11:56;9.48;;;6.47;;
78205;SDS011;67480;48.920;12.880;2024-01-15T13:14:22;10.45;;;6.30;;
78205;SDS011;67480;48.920;12.880;2024-01-15T13:16:47;9.45;;;5.95;;
78205;SDS011;67480;48.920;12.880;2024-01-15T13:19:13;9.20;;;5.88;;
78205;SDS011;67480;48.920;12.880;2024-01-15T13:21:40;8.82;;;5.63;;
78205;SDS011;67480;48.920;12.880;2024-01-15T13:24:05;8.38;;;5.93;;
78205;SDS011;67480;48.920;12.880;2024-01-15T13:26:34;9.00;;;5.88;;
78205;SDS011;67480;48.920;12.880;2024-01-15T13:29:01;9.68;;;5.80;;
78205;SDS011;67480;48.920;12.880;2024-01-15T13:31:28;7.60;;;5.97;;
78205;SDS011;67480;48.920;12.880;2024-01-15T13:33:54;7.97;;;5.32;;
78205;SDS011;67480;48.920;12.880;2024-01-15T13:36:21;8.90;;;5.95;;
78205;SDS011;67480;48.920;12.880;2024-01-15T13:38:50;10.25;;;5.90;;
78205;SDS011;67480;48.920;12.880;2024-01-15T13:41:16;7.45;;;5.60;;
78205;SDS011;67480;48.920;12.880;2024-01-15T13:43:43;10.60;;;5.28;;
78205;SDS011;67480;48.920;12.880;2024-01-15T13:46:12;7.82;;;5.15;;
78205;SDS011;67480;48.920;12.880;2024-01-15T13:48:38;6.93;;;5.00;;
78205;SDS011;67480;48.920;12.880;2024-01-15T13:51:03;7.47;;;4.93;;
78205;SDS011;67480;48.920;12.880;2024-01-15T13:53:28;8.43;;;5.00;;
78205;SDS011;67480;48.920;12.880;2024-01-15T13:55:54;7.78;;;4.78;;
78205;SDS011;67480;48.920;12.880;2024-01-15T13:58:20;7.32;;;5.25;;
78205;SDS011;67480;48.920;12.880;2024-01-15T14:00:46;7.30;;;4.43;;
78205;SDS011;67480;48.920;12.880;2024-01-15T14:03:12;7.28;;;4.63;;
78205;SDS011;67480;48.920;12.880;2024-01-15T14:05:37;5.93;;;4.68;;
78205;SDS011;67480;48.920;12.880;2024-01-15T14:08:03;7.13;;;4.22;;
78205;SDS011;67480;48.920;12.880;2024-01-15T14:10:29;8.85;;;4.78;;
78205;SDS011;67480;48.920;12.880;2024-01-15T14:12:54;7.05;;;4.53;;
78205;SDS011;67480;48.920;12.880;2024-01-15T14:15:19;7.63;;;4.97;;